Time;durP1;ratioP1;P1;durP2;ratioP2;P2;SDS_P1;SDS_P2;PMS_P1;PMS_P2;Temp;Humidity;BMP_temperature;BMP_pressure;BME280_temperature;BME280_humidity;BME280_pressure;Samples;Min_cycle;Max_cycle;Signal;HPM_P1;HPM_P2
2023/07/30 00:02:06;;;;;;;7.40;4.53;;;;;;;;;;5094016;27;20054;-45
2023/07/30 00:04:31;;;;;;;8.33;4.63;;;;;;;;;;5096955;27;20130;-46
2023/07/30 00:06:57;;;;;;;11.33;4.10;;;;;;;;;;5098411;27;20043;-45
2023/07/30 00:09:22;;;;;;;6.80;4.70;;;;;;;;;;5093893;27;20414;-45
2023/07/30 00:11:47;;;;;;;7.90;3.47;;;;;;;;;;5100784;27;20046;-45
2023/07/30 00:14:12;;;;;;;3.93;2.47;;;;;;;;;;5098713;27;20309;-45
2023/07/30 00:16:38;;;;;;;5.97;3.80;;;;;;;;;;5093343;27;20074;-45
2023/07/30 00:19:03;;;;;;;12.03;5.13;;;;;;;;;;5105499;27;20020;-45
2023/07/30 00:21:29;;;;;;;11.07;3.97;;;;;;;;;;5098177;27;20041;-45
2023/07/30 00:23:54;;;;;;;7.37;3.63;;;;;;;;;;5094036;27;20027;-45
2023/07/30 00:26:19;;;;;;;9.13;4.10;;;;;;;;;;5092605;27;21727;-45
2023/07/30 00:28:45;;;;;;;7.00;4.28;;;;;;;;;;5098247;27;20019;-45
2023/07/30 00:31:10;;;;;;;6.17;4.13;;;;;;;;;;5096772;27;20465;-46
2023/07/30 00:33:35;;;;;;;6.87;3.63;;;;;;;;;;5103859;27;20269;-45
2023/07/30 00:36:00;;;;;;;7.27;3.93;;;;;;;;;;5102982;27;20019;-45
2023/07/30 00:38:26;;;;;;;12.93;3.87;;;;;;;;;;5106039;28;20020;-46
2023/07/30 00:40:51;;;;;;;11.80;4.38;;;;;;;;;;5098006;27;20027;-45
2023/07/30 00:43:16;;;;;;;7.53;4.15;;;;;;;;;;5096956;28;20486;-45
2023/07/30 00:45:43;;;;;;;9.67;3.90;;;;;;;;;;5089509;27;20019;-45
2023/07/30 00:48:09;;;;;;;12.07;5.22;;;;;;;;;;5097179;27;20027;-45
2023/07/30 00:50:35;;;;;;;11.70;3.58;;;;;;;;;;5099766;27;20027;-47
2023/07/30 00:53:00;;;;;;;7.63;3.75;;;;;;;;;;5098368;27;20038;-46
2023/07/30 00:55:28;;;;;;;5.78;3.60;;;;;;;;;;5098006;27;20024;-45
2023/07/30 00:57:53;;;;;;;7.75;3.88;;;;;;;;;;5097832;27;20031;-45
2023/07/30 01:00:18;;;;;;;11.80;4.20;;;;;;;;;;5101849;27;20024;-45
2023/07/30 01:02:44;;;;;;;8.60;3.90;;;;;;;;;;5087290;27;20027;-46
2023/07/30 01:05:09;;;;;;;12.07;5.03;;;;;;;;;;5098854;27;20039;-46
2023/07/30 01:07:36;;;;;;;5.53;4.30;;;;;;;;;;5111234;27;20023;-45
2023/07/30 01:10:02;;;;;;;9.05;3.97;;;;;;;;;;5103742;28;20039;-46
2023/07/30 01:12:29;;;;;;;7.00;3.75;;;;;;;;;;5103246;27;20036;-46
2023/07/30 01:14:55;;;;;;;6.85;3.47;;;;;;;;;;5099550;27;20026;-45
2023/07/30 01:17:21;;;;;;;9.43;3.78;;;;;;;;;;5101521;27;20024;-45
2023/07/30 01:19:49;;;;;;;6.57;3.60;;;;;;;;;;5108715;27;20613;-45
2023/07/30 01:22:14;;;;;;;7.50;3.90;;;;;;;;;;5107786;27;20027;-45
2023/07/30 01:24:39;;;;;;;4.93;3.80;;;;;;;;;;5110779;27;20038;-45
2023/07/30 01:27:06;;;;;;;8.57;3.73;;;;;;;;;;5105444;27;20036;-45
2023/07/30 01:29:40;;;;;;;7.88;3.78;;;;;;;;;;5104421;27;20755;-45
2023/07/30 01:32:07;;;;;;;9.93;3.38;;;;;;;;;;5081533;27;20039;-45
2023/07/30 01:34:35;;;;;;;5.97;3.80;;;;;;;;;;5104907;27;20028;-45
2023/07/30 01:37:00;;;;;;;8.25;3.38;;;;;;;;;;5109328;27;20104;-45
2023/07/30 01:39:26;;;;;;;6.07;3.65;;;;;;;;;;5107380;27;20052;-45
2023/07/30 01:41:53;;;;;;;6.63;3.38;;;;;;;;;;5104457;27;20539;-45
2023/07/30 01:44:18;;;;;;;10.57;3.40;;;;;;;;;;5107190;27;20019;-45
2023/07/30 01:46:44;;;;;;;6.43;3.87;;;;;;;;;;5099292;27;21129;-46
2023/07/30 01:49:09;;;;;;;7.13;4.10;;;;;;;;;;5077428;27;20035;-45
2023/07/30 01:51:34;;;;;;;9.43;3.70;;;;;;;;;;5103495;27;21824;-45
2023/07/30 01:53:59;;;;;;;4.67;3.17;;;;;;;;;;5102880;27;20019;-45
2023/07/30 01:56:25;;;;;;;5.82;4.45;;;;;;;;;;5095017;28;21550;-45
2023/07/30 01:58:50;;;;;;;7.47;3.47;;;;;;;;;;5102263;27;20387;-45
2023/07/30 02:01:15;;;;;;;5.53;3.57;;;;;;;;;;5101725;27;20035;-45
2023/07/30 02:03:41;;;;;;;6.82;3.42;;;;;;;;;;5099201;27;20069;-46
2023/07/30 02:06:06;;;;;;;8.50;3.58;;;;;;;;;;5079053;27;20051;-45
2023/07/30 02:08:31;;;;;;;5.40;3.23;;;;;;;;;;5104239;27;20505;-45
2023/07/30 02:10:57;;;;;;;10.00;3.95;;;;;;;;;;5105649;27;20027;-45
2023/07/30 02:13:23;;;;;;;5.80;3.47;;;;;;;;;;5094737;27;20024;-45
2023/07/30 02:15:48;;;;;;;6.15;3.88;;;;;;;;;;5101378;27;20023;-45
2023/07/30 02:18:13;;;;;;;7.60;4.27;;;;;;;;;;5097450;28;20020;-45
2023/07/30 02:20:39;;;;;;;7.63;3.67;;;;;;;;;;5102385;27;20088;-45
2023/07/30 02:23:04;;;;;;;5.27;3.40;;;;;;;;;;5101372;28;20537;-46
2023/07/30 02:25:29;;;;;;;9.77;3.63;;;;;;;;;;5096114;27;20269;-45
2023/07/30 02:27:54;;;;;;;6.70;3.47;;;;;;;;;;5105482;27;20072;-46
2023/07/30 02:30:20;;;;;;;11.37;3.73;;;;;;;;;;5099704;27;20027;-45
2023/07/30 02:32:45;;;;;;;9.15;3.28;;;;;;;;;;5103202;27;20293;-45
2023/07/30 02:35:10;;;;;;;8.77;4.00;;;;;;;;;;5096779;27;20015;-47
2023/07/30 02:37:35;;;;;;;7.40;4.60;;;;;;;;;;5100662;27;20103;-47
2023/07/30 02:40:04;;;;;;;11.03;3.97;;;;;;;;;;5102770;28;20020;-45
2023/07/30 02:42:29;;;;;;;7.50;3.92;;;;;;;;;;5082784;27;21054;-45
2023/07/30 02:44:55;;;;;;;6.90;3.13;;;;;;;;;;5091165;27;20028;-45
2023/07/30 02:47:20;;;;;;;4.03;1.90;;;;;;;;;;5097760;27;20058;-45
2023/07/30 02:49:45;;;;;;;6.30;2.97;;;;;;;;;;5078483;28;20040;-47
2023/07/30 02:52:10;;;;;;;6.63;3.53;;;;;;;;;;5096850;27;20770;-45
2023/07/30 02:54:36;;;;;;;7.93;3.30;;;;;;;;;;5096720;27;20024;-45
2023/07/30 02:57:01;;;;;;;9.63;3.67;;;;;;;;;;5092169;27;20022;-45
2023/07/30 02:59:27;;;;;;;6.50;3.20;;;;;;;;;;5095241;27;20595;-45
2023/07/30 03:01:52;;;;;;;6.93;3.58;;;;;;;;;;5098248;27;20023;-45
2023/07/30 03:04:17;;;;;;;6.97;3.37;;;;;;;;;;5096247;27;20367;-45
2023/07/30 03:06:43;;;;;;;9.10;5.43;;;;;;;;;;5106799;27;20024;-45
2023/07/30 03:09:08;;;;;;;6.40;3.38;;;;;;;;;;5098331;27;20032;-45
2023/07/30 03:11:33;;;;;;;5.35;3.40;;;;;;;;;;5102914;27;20015;-46
2023/07/30 03:13:59;;;;;;;5.40;3.67;;;;;;;;;;5103725;27;20019;-45
2023/07/30 03:16:24;;;;;;;9.20;3.53;;;;;;;;;;5096701;27;20051;-45
2023/07/30 03:18:49;;;;;;;9.70;3.27;;;;;;;;;;5107203;27;20280;-47
2023/07/30 03:21:14;;;;;;;6.27;3.90;;;;;;;;;;5096178;27;20035;-45
2023/07/30 03:23:40;;;;;;;5.87;3.67;;;;;;;;;;5100815;28;20458;-45
2023/07/30 03:26:06;;;;;;;6.60;4.00;;;;;;;;;;5104208;27;20019;-45
2023/07/30 03:28:32;;;;;;;8.25;3.40;;;;;;;;;;5102427;27;20016;-45
2023/07/30 03:30:57;;;;;;;7.18;3.90;;;;;;;;;;5101703;27;20394;-47
2023/07/30 03:33:22;;;;;;;12.37;4.50;;;;;;;;;;5088528;28;20016;-45
2023/07/30 03:35:48;;;;;;;5.40;3.97;;;;;;;;;;5102446;27;20032;-45
2023/07/30 03:38:13;;;;;;;6.50;3.55;;;;;;;;;;5092120;28;20285;-46
2023/07/30 03:40:38;;;;;;;12.47;3.83;;;;;;;;;;5098988;28;20024;-45
2023/07/30 03:43:04;;;;;;;8.70;3.83;;;;;;;;;;5103110;27;20281;-45
2023/07/30 03:45:29;;;;;;;8.25;4.07;;;;;;;;;;5093898;27;20292;-45
2023/07/30 03:47:54;;;;;;;7.57;3.78;;;;;;;;;;5101789;28;20536;-45
2023/07/30 03:50:19;;;;;;;11.13;3.77;;;;;;;;;;5098606;28;20142;-45
2023/07/30 03:52:45;;;;;;;4.53;3.20;;;;;;;;;;5097198;28;20035;-45
2023/07/30 03:55:10;;;;;;;10.13;3.70;;;;;;;;;;5097603;28;20281;-46
2023/07/30 03:57:35;;;;;;;4.43;2.57;;;;;;;;;;5088348;28;20273;-45
2023/07/30 04:00:01;;;;;;;8.38;4.15;;;;;;;;;;5094270;28;20695;-45
2023/07/30 04:02:26;;;;;;;7.40;3.57;;;;;;;;;;5102438;28;20084;-45
2023/07/30 04:04:51;;;;;;;5.70;3.30;;;;;;;;;;5099146;28;20814;-45
2023/07/30 04:07:17;;;;;;;6.50;3.65;;;;;;;;;;5095678;28;20040;-46
2023/07/30 04:09:42;;;;;;;6.50;4.13;;;;;;;;;;5100952;28;20042;-45
2023/07/30 04:12:07;;;;;;;5.43;3.57;;;;;;;;;;5096725;28;20081;-45
2023/07/30 04:14:33;;;;;;;8.98;3.70;;;;;;;;;;5103377;27;20019;-45
2023/07/30 04:16:58;;;;;;;10.83;4.17;;;;;;;;;;5099728;28;20024;-46
2023/07/30 04:19:23;;;;;;;7.47;3.60;;;;;;;;;;5098560;28;20272;-47
2023/07/30 04:21:48;;;;;;;7.32;3.33;;;;;;;;;;5092728;28;20285;-45
2023/07/30 04:24:14;;;;;;;7.27;3.53;;;;;;;;;;5096895;28;20027;-45
2023/07/30 04:26:39;;;;;;;5.67;3.40;;;;;;;;;;5103014;28;20328;-45
2023/07/30 04:29:04;;;;;;;5.90;3.47;;;;;;;;;;5095561;28;20037;-45
2023/07/30 04:31:32;;;;;;;10.30;3.97;;;;;;;;;;5094311;28;20058;-45
2023/07/30 04:33:57;;;;;;;6.63;3.65;;;;;;;;;;5094090;28;20024;-46
2023/07/30 04:36:22;;;;;;;4.20;2.87;;;;;;;;;;5093804;28;20024;-45
2023/07/30 04:38:47;;;;;;;8.17;3.10;;;;;;;;;;5098451;28;20026;-46
2023/07/30 04:41:13;;;;;;;6.40;3.30;;;;;;;;;;5105388;28;20019;-45
2023/07/30 04:43:39;;;;;;;4.72;2.80;;;;;;;;;;5096123;27;20032;-45
2023/07/30 04:46:04;;;;;;;5.97;3.23;;;;;;;;;;5097275;27;20055;-45
2023/07/30 04:48:29;;;;;;;8.70;3.77;;;;;;;;;;5098743;27;20277;-45
2023/07/30 04:50:55;;;;;;;6.13;3.50;;;;;;;;;;5096756;27;20023;-45
2023/07/30 04:53:20;;;;;;;7.00;3.70;;;;;;;;;;5094876;27;20114;-46
2023/07/30 04:55:46;;;;;;;8.27;3.60;;;;;;;;;;5092666;27;20428;-45
2023/07/30 04:58:11;;;;;;;6.78;3.33;;;;;;;;;;5105549;27;20474;-45
2023/07/30 05:00:36;;;;;;;6.32;3.65;;;;;;;;;;5099533;27;20059;-45
2023/07/30 05:03:02;;;;;;;5.40;3.47;;;;;;;;;;5097078;27;20019;-45
2023/07/30 05:05:27;;;;;;;7.15;3.50;;;;;;;;;;5094691;27;20281;-45
2023/07/30 05:07:52;;;;;;;6.17;3.20;;;;;;;;;;5101467;27;20027;-46
2023/07/30 05:10:18;;;;;;;6.55;3.35;;;;;;;;;;5099553;27;20281;-47
2023/07/30 05:12:43;;;;;;;12.07;3.20;;;;;;;;;;5100791;28;20039;-46
2023/07/30 05:15:08;;;;;;;6.30;3.50;;;;;;;;;;5103179;27;20027;-47
2023/07/30 05:17:34;;;;;;;9.45;3.60;;;;;;;;;;5110562;27;20616;-47
2023/07/30 05:19:59;;;;;;;8.65;2.97;;;;;;;;;;5109257;27;20062;-46
2023/07/30 05:22:25;;;;;;;6.38;3.50;;;;;;;;;;5109693;27;20413;-45
2023/07/30 05:24:50;;;;;;;4.60;2.03;;;;;;;;;;5107722;27;20028;-47
2023/07/30 05:27:16;;;;;;;5.65;3.22;;;;;;;;;;5096770;27;20449;-45
2023/07/30 05:29:41;;;;;;;5.88;3.40;;;;;;;;;;5107663;27;20431;-45
2023/07/30 05:32:07;;;;;;;5.15;3.25;;;;;;;;;;5109546;27;20032;-45
2023/07/30 05:34:32;;;;;;;7.32;3.35;;;;;;;;;;5107815;27;20035;-45
2023/07/30 05:36:57;;;;;;;5.77;2.97;;;;;;;;;;5102477;27;20036;-45
2023/07/30 05:39:22;;;;;;;7.27;3.10;;;;;;;;;;5104902;27;20285;-46
2023/07/30 05:41:48;;;;;;;5.47;3.17;;;;;;;;;;5095114;27;20035;-45
2023/07/30 05:44:13;;;;;;;6.10;3.50;;;;;;;;;;5100032;27;20027;-46
2023/07/30 05:46:38;;;;;;;6.77;3.40;;;;;;;;;;5099743;27;20312;-45
2023/07/30 05:49:06;;;;;;;5.17;3.27;;;;;;;;;;5108920;27;20027;-46
2023/07/30 05:51:34;;;;;;;6.18;3.40;;;;;;;;;;5109293;27;20384;-46
2023/07/30 05:53:59;;;;;;;4.85;3.00;;;;;;;;;;5101506;27;20015;-45
2023/07/30 05:56:24;;;;;;;6.60;3.03;;;;;;;;;;5106010;28;20019;-46
2023/07/30 05:58:54;;;;;;;7.03;3.88;;;;;;;;;;5107911;27;20189;-46
2023/07/30 06:01:20;;;;;;;7.07;3.00;;;;;;;;;;5097785;27;20016;-45
2023/07/30 06:03:45;;;;;;;7.33;3.37;;;;;;;;;;5103682;27;20068;-46
2023/07/30 06:06:10;;;;;;;6.50;3.67;;;;;;;;;;5098151;27;20020;-45
2023/07/30 06:08:35;;;;;;;5.93;3.53;;;;;;;;;;5102382;27;20852;-46
2023/07/30 06:11:03;;;;;;;4.80;3.33;;;;;;;;;;5093681;27;20277;-46
2023/07/30 06:13:28;;;;;;;11.63;3.58;;;;;;;;;;5101068;27;20840;-45
2023/07/30 06:15:53;;;;;;;7.18;3.55;;;;;;;;;;5108024;27;20047;-46
2023/07/30 06:18:19;;;;;;;8.50;3.13;;;;;;;;;;5108885;27;20346;-45
2023/07/30 06:20:44;;;;;;;8.10;3.13;;;;;;;;;;5092884;28;20027;-45
2023/07/30 06:23:09;;;;;;;5.30;3.05;;;;;;;;;;5099388;27;20040;-46
2023/07/30 06:25:35;;;;;;;4.40;3.00;;;;;;;;;;5088495;27;20052;-46
2023/07/30 06:28:00;;;;;;;4.33;2.97;;;;;;;;;;5095681;28;20759;-46
2023/07/30 06:30:25;;;;;;;7.05;3.50;;;;;;;;;;5100519;27;20283;-45
2023/07/30 06:32:51;;;;;;;7.03;3.40;;;;;;;;;;5102647;27;20037;-45
2023/07/30 06:35:16;;;;;;;5.13;3.13;;;;;;;;;;5100155;27;20039;-45
2023/07/30 06:37:41;;;;;;;5.57;2.60;;;;;;;;;;5105213;27;20034;-46
2023/07/30 06:40:07;;;;;;;7.47;4.20;;;;;;;;;;5100516;27;20485;-47
2023/07/30 06:42:33;;;;;;;7.05;3.38;;;;;;;;;;5099545;27;20277;-47
2023/07/30 06:44:58;;;;;;;5.03;2.95;;;;;;;;;;5097176;27;20052;-45
2023/07/30 06:47:23;;;;;;;7.13;2.87;;;;;;;;;;5099571;27;20084;-45
2023/07/30 06:49:48;;;;;;;8.27;3.77;;;;;;;;;;5100722;27;20377;-45
2023/07/30 06:52:13;;;;;;;6.33;3.30;;;;;;;;;;5106060;27;20015;-45
2023/07/30 06:54:39;;;;;;;3.57;2.23;;;;;;;;;;5096848;27;20043;-45
2023/07/30 06:57:05;;;;;;;5.35;2.47;;;;;;;;;;5106153;27;20304;-45
2023/07/30 06:59:31;;;;;;;7.25;2.55;;;;;;;;;;5104182;27;20024;-45
2023/07/30 07:01:56;;;;;;;4.93;2.57;;;;;;;;;;5101445;27;20028;-45
2023/07/30 07:04:21;;;;;;;8.80;2.60;;;;;;;;;;5101453;27;20378;-45
2023/07/30 07:06:46;;;;;;;4.13;2.50;;;;;;;;;;5081469;28;20032;-45
2023/07/30 07:09:12;;;;;;;8.07;2.10;;;;;;;;;;5103503;27;20027;-45
2023/07/30 07:11:37;;;;;;;7.22;3.17;;;;;;;;;;5090294;27;20448;-45
2023/07/30 07:14:02;;;;;;;7.50;3.20;;;;;;;;;;5084489;27;20297;-45
2023/07/30 07:16:28;;;;;;;5.15;2.60;;;;;;;;;;5087351;28;20433;-45
2023/07/30 07:18:53;;;;;;;4.17;2.73;;;;;;;;;;5101613;27;20049;-45
2023/07/30 07:21:20;;;;;;;5.30;2.70;;;;;;;;;;5107457;27;20024;-45
2023/07/30 07:23:45;;;;;;;6.00;3.25;;;;;;;;;;5098268;27;20277;-45
2023/07/30 07:26:10;;;;;;;5.63;3.30;;;;;;;;;;5102753;27;20015;-45
2023/07/30 07:28:36;;;;;;;9.07;4.50;;;;;;;;;;5105399;27;20026;-45
2023/07/30 07:31:01;;;;;;;3.77;2.60;;;;;;;;;;5103496;27;20023;-45
2023/07/30 07:33:26;;;;;;;7.22;3.60;;;;;;;;;;5112413;27;20434;-45
2023/07/30 07:36:01;;;;;;;2.87;1.80;;;;;;;;;;5102027;27;20023;-45
2023/07/30 07:38:27;;;;;;;4.45;2.30;;;;;;;;;;5106647;27;20269;-45
2023/07/30 07:40:52;;;;;;;5.40;2.43;;;;;;;;;;5108647;27;20027;-45
2023/07/30 07:43:17;;;;;;;5.13;2.90;;;;;;;;;;5096121;27;20157;-45
2023/07/30 07:45:42;;;;;;;3.33;2.10;;;;;;;;;;5094197;27;20292;-45
2023/07/30 07:48:08;;;;;;;4.90;2.70;;;;;;;;;;5097066;28;20031;-45
2023/07/30 07:50:33;;;;;;;8.43;3.00;;;;;;;;;;5094230;28;20292;-45
2023/07/30 07:52:58;;;;;;;6.90;3.33;;;;;;;;;;5100168;28;20035;-45
2023/07/30 07:55:23;;;;;;;5.57;2.43;;;;;;;;;;5091795;28;20028;-45
2023/07/30 07:57:49;;;;;;;5.23;2.30;;;;;;;;;;5090629;28;20042;-45
2023/07/30 08:00:14;;;;;;;7.83;3.77;;;;;;;;;;5089285;28;20273;-45
2023/07/30 08:02:39;;;;;;;4.30;2.83;;;;;;;;;;5087134;28;20523;-46
2023/07/30 08:05:04;;;;;;;4.90;2.70;;;;;;;;;;5085088;28;20038;-46
2023/07/30 08:07:30;;;;;;;3.90;2.60;;;;;;;;;;5097823;28;20036;-45
2023/07/30 08:09:55;;;;;;;3.97;2.60;;;;;;;;;;5099662;28;20023;-45
2023/07/30 08:12:20;;;;;;;7.00;3.47;;;;;;;;;;5092468;28;20342;-45
2023/07/30 08:14:46;;;;;;;8.23;2.78;;;;;;;;;;5097648;28;20364;-45
2023/07/30 08:17:11;;;;;;;4.47;2.23;;;;;;;;;;5101918;28;20490;-46
2023/07/30 08:19:36;;;;;;;3.87;2.40;;;;;;;;;;5100667;28;20296;-45
2023/07/30 08:22:02;;;;;;;6.70;2.63;;;;;;;;;;5104011;27;20530;-45
2023/07/30 08:24:27;;;;;;;3.45;2.00;;;;;;;;;;5089801;28;20277;-45
2023/07/30 08:26:52;;;;;;;6.73;2.33;;;;;;;;;;5089013;27;20112;-45
2023/07/30 08:29:17;;;;;;;4.03;1.97;;;;;;;;;;5086538;27;20040;-45
2023/07/30 08:31:43;;;;;;;4.40;2.75;;;;;;;;;;5089500;27;20300;-45
2023/07/30 08:34:08;;;;;;;5.73;2.30;;;;;;;;;;5090231;27;20054;-45
2023/07/30 08:36:33;;;;;;;3.70;2.50;;;;;;;;;;5096637;27;20352;-45
2023/07/30 08:38:58;;;;;;;4.13;3.00;;;;;;;;;;5096630;27;20038;-45
2023/07/30 08:41:24;;;;;;;6.67;3.17;;;;;;;;;;5089532;27;20651;-45
2023/07/30 08:43:49;;;;;;;3.03;2.33;;;;;;;;;;5092219;27;20024;-45
2023/07/30 08:46:15;;;;;;;4.78;2.85;;;;;;;;;;5076811;27;20142;-45
2023/07/30 08:48:41;;;;;;;6.97;4.03;;;;;;;;;;5090816;27;20027;-45
2023/07/30 08:51:06;;;;;;;6.28;3.15;;;;;;;;;;5084473;27;20020;-45
2023/07/30 08:53:32;;;;;;;8.10;3.40;;;;;;;;;;5087140;28;20093;-45
2023/07/30 08:55:58;;;;;;;4.35;3.13;;;;;;;;;;5084209;27;20886;-45
2023/07/30 08:58:24;;;;;;;4.82;2.50;;;;;;;;;;5099592;27;20363;-45
2023/07/30 09:00:51;;;;;;;4.90;3.10;;;;;;;;;;5102814;27;20027;-45
2023/07/30 09:03:17;;;;;;;6.90;3.53;;;;;;;;;;5086400;27;20051;-45
2023/07/30 09:05:43;;;;;;;3.85;3.35;;;;;;;;;;5091795;27;20133;-45
2023/07/30 09:08:08;;;;;;;4.27;3.17;;;;;;;;;;5085617;27;20629;-45
2023/07/30 09:10:33;;;;;;;4.43;3.00;;;;;;;;;;5095961;27;20281;-45
2023/07/30 09:12:59;;;;;;;4.93;3.23;;;;;;;;;;5091722;27;20032;-45
2023/07/30 09:15:34;;;;;;;4.18;3.13;;;;;;;;;;5094989;27;20648;-45
2023/07/30 09:18:00;;;;;;;5.15;3.20;;;;;;;;;;5104559;27;20034;-45
2023/07/30 09:20:26;;;;;;;8.82;3.03;;;;;;;;;;5113491;27;20023;-46
2023/07/30 09:22:51;;;;;;;4.72;3.17;;;;;;;;;;5109384;27;20030;-45
2023/07/30 09:25:20;;;;;;;4.37;2.93;;;;;;;;;;5101202;27;20122;-45
2023/07/30 09:27:50;;;;;;;3.67;2.85;;;;;;;;;;5091932;27;20052;-45
2023/07/30 09:30:21;;;;;;;4.90;2.70;;;;;;;;;;5086700;27;20027;-45
2023/07/30 09:32:50;;;;;;;5.05;3.03;;;;;;;;;;5084940;27;20480;-45
2023/07/30 09:35:16;;;;;;;3.65;2.83;;;;;;;;;;5110510;27;20099;-45
2023/07/30 09:37:41;;;;;;;4.15;3.00;;;;;;;;;;5106744;27;20028;-45
2023/07/30 09:40:12;;;;;;;4.70;2.83;;;;;;;;;;5103925;27;20030;-45
2023/07/30 09:42:39;;;;;;;6.25;3.08;;;;;;;;;;5099061;27;20036;-45
2023/07/30 09:45:07;;;;;;;4.93;3.35;;;;;;;;;;5096183;27;20046;-45
2023/07/30 09:47:33;;;;;;;4.38;2.88;;;;;;;;;;5091395;27;20028;-45
2023/07/30 09:49:59;;;;;;;4.78;3.15;;;;;;;;;;5089296;27;20024;-45
2023/07/30 09:52:24;;;;;;;6.13;2.63;;;;;;;;;;5070446;28;20031;-45
2023/07/30 09:54:51;;;;;;;5.27;2.47;;;;;;;;;;5092076;27;20027;-45
2023/07/30 09:57:16;;;;;;;4.68;2.80;;;;;;;;;;5091544;28;20281;-45
2023/07/30 09:59:42;;;;;;;4.15;2.88;;;;;;;;;;5095842;27;20020;-45
2023/07/30 10:02:08;;;;;;;4.18;2.70;;;;;;;;;;5093602;27;20452;-45
2023/07/30 10:04:34;;;;;;;5.70;2.95;;;;;;;;;;5087285;28;20470;-45
2023/07/30 10:07:02;;;;;;;3.83;2.58;;;;;;;;;;5101609;27;20414;-45
2023/07/30 10:09:30;;;;;;;4.68;3.10;;;;;;;;;;5078934;27;20023;-45
2023/07/30 10:11:55;;;;;;;5.55;3.08;;;;;;;;;;5098410;27;20027;-45
2023/07/30 10:14:23;;;;;;;5.13;3.30;;;;;;;;;;5085815;27;20103;-45
2023/07/30 10:16:52;;;;;;;3.45;2.28;;;;;;;;;;5088270;27;20468;-45
2023/07/30 10:19:18;;;;;;;9.30;4.10;;;;;;;;;;5082281;27;20028;-45
2023/07/30 10:21:43;;;;;;;4.57;2.70;;;;;;;;;;5082197;27;20110;-45
2023/07/30 10:24:10;;;;;;;3.55;2.13;;;;;;;;;;5087558;27;20027;-45
2023/07/30 10:26:36;;;;;;;5.32;2.30;;;;;;;;;;5094348;27;20027;-45
2023/07/30 10:29:11;;;;;;;5.72;2.45;;;;;;;;;;5088480;27;20034;-45
2023/07/30 10:31:56;;;;;;;2.80;1.63;;;;;;;;;;5094531;27;20035;-45
2023/07/30 10:34:21;;;;;;;5.32;1.77;;;;;;;;;;5103276;27;20492;-45
2023/07/30 10:36:49;;;;;;;5.00;2.10;;;;;;;;;;5092076;27;20034;-45
2023/07/30 10:39:17;;;;;;;2.55;1.58;;;;;;;;;;5101995;27;20026;-45
2023/07/30 10:41:43;;;;;;;4.57;2.10;;;;;;;;;;5100423;28;21124;-45
2023/07/30 10:44:17;;;;;;;4.75;1.75;;;;;;;;;;5100655;27;20514;-45
2023/07/30 10:46:42;;;;;;;4.60;1.90;;;;;;;;;;5085251;27;20031;-45
2023/07/30 10:49:09;;;;;;;5.30;2.00;;;;;;;;;;5103029;27;20027;-45
2023/07/30 10:51:35;;;;;;;4.20;1.85;;;;;;;;;;5090173;28;20027;-45
2023/07/30 10:54:00;;;;;;;3.70;1.48;;;;;;;;;;5098181;27;20176;-45
2023/07/30 10:56:25;;;;;;;4.00;1.52;;;;;;;;;;5094389;27;20143;-45
2023/07/30 10:58:52;;;;;;;2.63;1.63;;;;;;;;;;5090157;27;20062;-46
2023/07/30 11:01:17;;;;;;;3.17;1.55;;;;;;;;;;5092112;27;21063;-45
2023/07/30 11:03:42;;;;;;;3.17;1.97;;;;;;;;;;5089676;27;20051;-45
2023/07/30 11:06:08;;;;;;;2.70;1.47;;;;;;;;;;5075578;28;20289;-45
2023/07/30 11:08:34;;;;;;;5.47;1.70;;;;;;;;;;5086887;27;20614;-45
2023/07/30 11:11:00;;;;;;;3.92;1.77;;;;;;;;;;5082846;27;20012;-45
2023/07/30 11:13:25;;;;;;;3.58;1.75;;;;;;;;;;5084359;28;20224;-45
2023/07/30 11:15:50;;;;;;;3.33;1.87;;;;;;;;;;5104402;27;20110;-45
2023/07/30 11:18:16;;;;;;;3.53;1.30;;;;;;;;;;5099385;27;20348;-45
2023/07/30 11:20:41;;;;;;;6.15;1.95;;;;;;;;;;5094684;27;20500;-45
2023/07/30 11:23:22;;;;;;;3.13;1.40;;;;;;;;;;5102878;27;20063;-45
2023/07/30 11:25:51;;;;;;;4.33;1.97;;;;;;;;;;5101794;27;20864;-45
2023/07/30 11:28:29;;;;;;;7.90;1.95;;;;;;;;;;5100885;28;20330;-45
2023/07/30 11:30:55;;;;;;;4.47;1.75;;;;;;;;;;5105160;27;20032;-45
2023/07/30 11:33:20;;;;;;;6.40;1.88;;;;;;;;;;5100035;27;20114;-45
2023/07/30 11:35:45;;;;;;;3.33;1.80;;;;;;;;;;5098564;27;20108;-45
2023/07/30 11:38:12;;;;;;;4.72;1.98;;;;;;;;;;5100424;28;20110;-45
2023/07/30 11:40:38;;;;;;;4.95;1.90;;;;;;;;;;5104967;28;20024;-45
2023/07/30 11:43:04;;;;;;;4.22;1.80;;;;;;;;;;5100750;28;20393;-45
2023/07/30 11:45:29;;;;;;;3.65;1.80;;;;;;;;;;5092406;28;20074;-45
2023/07/30 11:48:07;;;;;;;4.40;1.57;;;;;;;;;;5101153;27;20078;-46
2023/07/30 11:50:49;;;;;;;4.18;1.55;;;;;;;;;;5092735;28;20015;-45
2023/07/30 11:53:14;;;;;;;;;;;;;;;;;;5098892;28;20039;-45
2023/07/30 11:55:43;;;;;;;8.90;2.20;;;;;;;;;;5102321;27;19916;-45
2023/07/30 11:58:09;;;;;;;3.53;1.55;;;;;;;;;;5103806;27;21567;-45
2023/07/30 12:00:35;;;;;;;4.00;2.00;;;;;;;;;;5097152;27;20084;-45
2023/07/30 12:03:04;;;;;;;3.45;1.30;;;;;;;;;;5101650;27;20134;-46
2023/07/30 12:05:37;;;;;;;6.22;1.80;;;;;;;;;;5098565;27;20030;-46
2023/07/30 12:08:03;;;;;;;2.92;1.40;;;;;;;;;;5105286;27;20020;-46
2023/07/30 12:10:40;;;;;;;3.17;1.52;;;;;;;;;;5103794;27;20038;-46
2023/07/30 12:13:10;;;;;;;3.60;1.65;;;;;;;;;;5104700;27;20104;-46
2023/07/30 12:15:36;;;;;;;6.60;1.83;;;;;;;;;;5111426;27;20495;-46
2023/07/30 12:18:01;;;;;;;3.13;1.58;;;;;;;;;;5107377;27;20031;-45
2023/07/30 12:20:29;;;;;;;4.90;1.47;;;;;;;;;;5097724;27;20587;-46
2023/07/30 12:22:55;;;;;;;3.78;1.60;;;;;;;;;;5112495;27;20340;-46
2023/07/30 12:25:20;;;;;;;5.00;1.60;;;;;;;;;;5114262;27;20098;-46
2023/07/30 12:27:45;;;;;;;4.53;1.80;;;;;;;;;;5105190;27;20026;-46
2023/07/30 12:30:11;;;;;;;5.30;1.50;;;;;;;;;;5109929;27;20285;-46
2023/07/30 12:32:36;;;;;;;3.60;1.88;;;;;;;;;;5109314;27;20373;-46
2023/07/30 12:35:01;;;;;;;2.77;1.23;;;;;;;;;;5105688;27;20032;-46
2023/07/30 12:37:26;;;;;;;8.27;3.27;;;;;;;;;;5102941;27;20062;-46
2023/07/30 12:39:52;;;;;;;3.05;1.35;;;;;;;;;;5102850;27;20038;-46
2023/07/30 12:42:17;;;;;;;2.47;1.30;;;;;;;;;;5102299;27;20547;-45
2023/07/30 12:44:42;;;;;;;3.03;1.57;;;;;;;;;;5104589;27;20062;-45
2023/07/30 12:47:07;;;;;;;6.72;1.80;;;;;;;;;;5111492;27;20505;-46
2023/07/30 12:49:33;;;;;;;3.20;1.50;;;;;;;;;;5113531;27;20482;-45
2023/07/30 12:51:58;;;;;;;7.13;1.77;;;;;;;;;;5100409;27;20023;-45
2023/07/30 12:54:23;;;;;;;8.30;1.80;;;;;;;;;;5109584;27;20762;-45
2023/07/30 12:56:48;;;;;;;3.03;1.50;;;;;;;;;;5109895;27;20351;-45
2023/07/30 12:59:14;;;;;;;5.90;1.70;;;;;;;;;;5112926;27;20488;-46
2023/07/30 13:01:39;;;;;;;4.70;1.63;;;;;;;;;;5110963;27;20038;-46
2023/07/30 13:04:04;;;;;;;8.53;1.47;;;;;;;;;;5103505;27;20019;-46
2023/07/30 13:06:30;;;;;;;5.60;1.90;;;;;;;;;;5097988;27;20020;-46
2023/07/30 13:08:55;;;;;;;3.40;1.43;;;;;;;;;;5106071;27;20077;-45
2023/07/30 13:11:20;;;;;;;4.60;1.70;;;;;;;;;;5108045;27;20054;-45
2023/07/30 13:13:45;;;;;;;4.73;1.40;;;;;;;;;;5089645;27;20027;-45
2023/07/30 13:16:11;;;;;;;7.32;2.05;;;;;;;;;;5098958;27;20041;-46
2023/07/30 13:18:36;;;;;;;2.73;1.63;;;;;;;;;;5104249;27;20019;-45
2023/07/30 13:21:01;;;;;;;3.33;1.57;;;;;;;;;;5108340;27;20265;-45
2023/07/30 13:23:26;;;;;;;4.07;1.43;;;;;;;;;;5107525;27;20035;-46
2023/07/30 13:25:52;;;;;;;4.13;1.50;;;;;;;;;;5106362;27;20027;-46
2023/07/30 13:28:17;;;;;;;5.17;1.97;;;;;;;;;;5102350;27;20850;-45
2023/07/30 13:30:42;;;;;;;3.07;1.50;;;;;;;;;;5105195;27;20027;-45
2023/07/30 13:33:07;;;;;;;4.93;1.53;;;;;;;;;;5095882;27;20023;-46
2023/07/30 13:35:33;;;;;;;3.40;1.47;;;;;;;;;;5097738;27;20035;-46
2023/07/30 13:37:58;;;;;;;5.70;1.75;;;;;;;;;;5104785;27;20087;-45
2023/07/30 13:40:23;;;;;;;2.53;1.05;;;;;;;;;;5102189;27;20114;-45
2023/07/30 13:42:49;;;;;;;7.43;1.77;;;;;;;;;;5106042;27;20031;-45
2023/07/30 13:45:14;;;;;;;4.30;2.10;;;;;;;;;;5083821;28;20027;-45
2023/07/30 13:47:40;;;;;;;4.60;1.80;;;;;;;;;;5110525;27;20276;-45
2023/07/30 13:50:06;;;;;;;5.80;1.40;;;;;;;;;;5105568;27;20119;-46
2023/07/30 13:52:32;;;;;;;5.85;1.55;;;;;;;;;;5107767;27;20139;-45
2023/07/30 13:54:57;;;;;;;4.13;1.50;;;;;;;;;;5102472;27;20541;-46
2023/07/30 13:57:25;;;;;;;4.40;1.60;;;;;;;;;;5107660;27;20595;-46
2023/07/30 13:59:51;;;;;;;4.38;1.50;;;;;;;;;;5101727;28;20023;-46
2023/07/30 14:02:17;;;;;;;3.60;1.60;;;;;;;;;;5099338;27;20379;-46
2023/07/30 14:04:42;;;;;;;3.72;1.20;;;;;;;;;;5093246;27;20040;-45
2023/07/30 14:07:07;;;;;;;4.60;1.47;;;;;;;;;;5101774;27;20070;-46
2023/07/30 14:09:36;;;;;;;6.15;1.52;;;;;;;;;;5106252;27;20472;-46
2023/07/30 14:12:01;;;;;;;3.70;1.65;;;;;;;;;;5103131;27;20035;-46
2023/07/30 14:14:27;;;;;;;4.15;1.80;;;;;;;;;;5098485;27;20024;-45
2023/07/30 14:16:53;;;;;;;2.03;1.00;;;;;;;;;;5101497;27;20146;-45
2023/07/30 14:19:18;;;;;;;5.25;1.80;;;;;;;;;;5107078;27;20099;-45
2023/07/30 14:21:43;;;;;;;4.00;1.70;;;;;;;;;;5104604;28;20481;-46
2023/07/30 14:24:09;;;;;;;4.97;1.70;;;;;;;;;;5101316;27;20318;-45
2023/07/30 14:26:34;;;;;;;3.13;1.40;;;;;;;;;;5104711;27;20369;-46
2023/07/30 14:28:59;;;;;;;4.10;1.90;;;;;;;;;;5098657;28;20634;-46
2023/07/30 14:31:25;;;;;;;4.63;1.33;;;;;;;;;;5101602;27;20020;-45
2023/07/30 14:33:50;;;;;;;3.47;1.40;;;;;;;;;;5097154;28;20394;-46
2023/07/30 14:36:16;;;;;;;6.93;1.60;;;;;;;;;;5104250;27;20314;-46